Time;durP1;ratioP1;P1;durP2;ratioP2;P2;SDS_P1;SDS_P2;PMS_P1;PMS_P2;Temp;Humidity;BMP_temperature;BMP_pressure;BME280_temperature;BME280_humidity;BME280_pressure;Samples;Min_cycle;Max_cycle;Signal;HPM_P1;HPM_P2
2023/08/02 00:04:01;;;;;;;;;;;;;;;19.19;62.88;98412.56;10368825;28;788;-72
2023/08/02 00:08:57;;;;;;;;;;;;;;;19.20;62.63;98400.22;10369141;28;1267;-71
2023/08/02 00:13:53;;;;;;;;;;;;;;;19.19;62.78;98398.53;10367911;28;1099;-72
2023/08/02 00:18:49;;;;;;;;;;;;;;;19.18;62.74;98381.00;10368278;28;1980;-72
2023/08/02 00:23:45;;;;;;;;;;;;;;;19.18;62.71;98379.19;10366763;28;913;-72
2023/08/02 00:28:41;;;;;;;;;;;;;;;19.19;62.67;98382.69;10368101;28;1048;-72
2023/08/02 00:33:38;;;;;;;;;;;;;;;19.19;62.65;98374.75;10367747;28;894;-72
2023/08/02 00:38:34;;;;;;;;;;;;;;;19.18;62.62;98378.38;10367008;28;1894;-72
2023/08/02 00:43:29;;;;;;;;;;;;;;;19.18;62.75;98381.00;10367481;28;846;-72
2023/08/02 00:48:26;;;;;;;;;;;;;;;19.18;62.60;98378.38;10367219;28;866;-72
2023/08/02 00:53:22;;;;;;;;;;;;;;;19.17;62.59;98368.72;10367651;28;906;-72
2023/08/02 00:58:17;;;;;;;;;;;;;;;19.16;62.96;98362.63;10367585;28;865;-72
2023/08/02 01:03:13;;;;;;;;;;;;;;;19.16;62.82;98361.78;10366713;28;1897;-72
2023/08/02 01:08:15;;;;;;;;;;;;;;;19.16;62.80;98367.06;10367553;28;1097;-72
2023/08/02 01:13:17;;;;;;;;;;;;;;;19.16;62.55;98367.06;10366668;28;888;-72
2023/08/02 01:18:16;;;;;;;;;;;;;;;19.15;62.62;98349.50;10366511;28;877;-72
2023/08/02 01:23:18;;;;;;;;;;;;;;;19.15;62.69;98336.28;10367265;28;1922;-72
2023/08/02 01:28:20;;;;;;;;;;;;;;;19.14;62.57;98322.25;10366264;28;810;-72
2023/08/02 01:33:22;;;;;;;;;;;;;;;19.14;62.68;98305.56;10366073;28;901;-72
2023/08/02 01:38:21;;;;;;;;;;;;;;;19.14;62.71;98297.66;10373074;28;921;-72
2023/08/02 01:43:20;;;;;;;;;;;;;;;19.13;62.48;98310.00;10374455;28;1894;-72
2023/08/02 01:48:16;;;;;;;;;;;;;;;19.15;62.77;98323.09;10374314;28;783;-72
2023/08/02 01:53:12;;;;;;;;;;;;;;;19.13;62.64;98317.09;10374736;28;925;-72
2023/08/02 01:58:08;;;;;;;;;;;;;;;19.12;62.62;98304.81;10374488;28;898;-72
2023/08/02 02:03:04;;;;;;;;;;;;;;;19.12;62.76;98302.19;10374186;28;1901;-72
2023/08/02 02:08:00;;;;;;;;;;;;;;;19.10;62.58;98297.03;10372038;28;1441;-72
2023/08/02 02:12:56;;;;;;;;;;;;;;;19.11;62.64;98284.66;10372834;28;919;-72
2023/08/02 02:18:02;;;;;;;;;;;;;;;19.11;62.47;98287.31;10373172;28;838;-72
2023/08/02 02:22:58;;;;;;;;;;;;;;;19.10;62.61;98259.19;10355046;28;1985;-72
2023/08/02 02:28:03;;;;;;;;;;;;;;;19.09;62.62;98245.16;10373354;28;913;-72
2023/08/02 02:32:59;;;;;;;;;;;;;;;19.10;62.56;98273.25;10371979;28;1000;-72
2023/08/02 02:38:01;;;;;;;;;;;;;;;19.09;62.54;98261.00;10373068;28;913;-72
2023/08/02 02:43:00;;;;;;;;;;;;;;;19.09;62.60;98261.00;10372820;28;1949;-72
2023/08/02 02:48:02;;;;;;;;;;;;;;;19.08;62.48;98255.84;10371231;28;834;-73
2023/08/02 02:53:04;;;;;;;;;;;;;;;19.07;62.60;98241.75;10371811;28;806;-72
2023/08/02 02:58:03;;;;;;;;;;;;;;;19.08;62.59;98248.75;10371632;28;870;-72
2023/08/02 03:03:05;;;;;;;;;;;;;;;19.08;62.69;98232.06;10371371;28;1960;-72
2023/08/02 03:08:04;;;;;;;;;;;;;;;19.07;62.68;98214.53;10371560;28;1051;-72
2023/08/02 03:13:05;;;;;;;;;;;;;;;19.07;62.68;98207.44;10370276;28;1283;-72
2023/08/02 03:18:07;;;;;;;;;;;;;;;19.05;62.50;98175.88;10370815;28;830;-72
2023/08/02 03:23:09;;;;;;;;;;;;;;;19.07;62.58;98185.47;10371307;28;1976;-72
2023/08/02 03:28:08;;;;;;;;;;;;;;;19.07;62.61;98180.19;10371069;28;773;-72
2023/08/02 03:33:10;;;;;;;;;;;;;;;19.05;62.70;98178.53;10370286;28;878;-73
2023/08/02 03:38:06;;;;;;;;;;;;;;;19.07;62.65;98182.84;10370687;28;862;-72
2023/08/02 03:43:01;;;;;;;;;;;;;;;19.05;62.68;98185.59;10369789;28;1928;-72
2023/08/02 03:47:57;;;;;;;;;;;;;;;19.04;62.79;98174.16;10368995;28;1087;-72
2023/08/02 03:52:53;;;;;;;;;;;;;;;19.04;62.62;98144.28;10369458;28;839;-73
2023/08/02 03:57:50;;;;;;;;;;;;;;;19.03;62.78;98140.81;10369252;28;810;-72
2023/08/02 04:02:48;;;;;;;;;;;;;;;19.03;62.66;98118.84;10368213;28;1898;-72
2023/08/02 04:07:45;;;;;;;;;;;;;;;19.02;62.51;98112.72;10368255;28;980;-72
2023/08/02 04:12:43;;;;;;;;;;;;;;;19.02;62.63;98103.94;10369115;28;1365;-72
2023/08/02 04:17:39;;;;;;;;;;;;;;;19.02;62.67;98099.53;10367891;28;950;-72
2023/08/02 04:22:36;;;;;;;;;;;;;;;19.01;62.80;98108.38;10367587;28;1971;-72
2023/08/02 04:27:32;;;;;;;;;;;;;;;19.01;62.68;98107.56;10368685;28;834;-72
2023/08/02 04:32:28;;;;;;;;;;;;;;;19.00;62.63;98104.06;10367974;28;874;-72
2023/08/02 04:37:24;;;;;;;;;;;;;;;18.99;62.76;98081.28;10368295;28;838;-72
2023/08/02 04:42:20;;;;;;;;;;;;;;;18.99;62.68;98076.00;10367553;28;1901;-72
2023/08/02 04:47:22;;;;;;;;;;;;;;;18.99;62.81;98064.56;10368141;28;872;-72
2023/08/02 04:52:17;;;;;;;;;;;;;;;18.98;62.72;98055.81;10366906;28;1074;-72
2023/08/02 04:57:14;;;;;;;;;;;;;;;18.98;62.83;98037.34;10367236;28;931;-72
2023/08/02 05:02:10;;;;;;;;;;;;;;;18.98;62.58;98020.66;10366826;28;1953;-72
2023/08/02 05:07:09;;;;;;;;;;;;;;;18.98;62.49;98028.56;10367266;28;1042;-71
2023/08/02 05:12:05;;;;;;;;;;;;;;;18.97;62.60;98009.25;10368124;28;1306;-71
2023/08/02 05:17:01;;;;;;;;;;;;;;;18.97;62.61;98003.16;10366483;28;807;-72
2023/08/02 05:21:57;;;;;;;;;;;;;;;18.98;62.49;98002.19;10366615;28;1976;-71
2023/08/02 05:27:02;;;;;;;;;;;;;;;18.98;62.58;97986.34;10366272;28;785;-71
2023/08/02 05:31:58;;;;;;;;;;;;;;;18.99;62.67;97965.09;10366795;28;857;-72
2023/08/02 05:37:01;;;;;;;;;;;;;;;19.00;62.59;97972.06;10366699;28;1037;-74
2023/08/02 05:42:00;;;;;;;;;;;;;;;18.99;62.69;97949.25;10365979;28;1977;-72
2023/08/02 05:47:02;;;;;;;;;;;;;;;19.00;62.61;97950.09;10365868;28;967;-70
2023/08/02 05:52:03;;;;;;;;;;;;;;;18.99;62.79;97943.97;10366004;28;877;-72
2023/08/02 05:57:03;;;;;;;;;;;;;;;19.00;62.62;97929.81;10365701;28;945;-72
2023/08/02 06:01:59;;;;;;;;;;;;;;;19.00;62.86;97908.69;10365621;28;1894;-71
2023/08/02 06:06:54;;;;;;;;;;;;;;;19.00;62.80;97894.66;10365615;28;946;-69
2023/08/02 06:11:51;;;;;;;;;;;;;;;18.99;62.86;97883.25;10364723;28;1269;-72
2023/08/02 06:27:24;;;;;;;;;;;;;;;18.99;62.80;97880.63;10325705;28;1429;-71
2023/08/02 06:32:21;;;;;;;;;;;;;;;18.98;63.04;97870.16;10373322;28;956;-72
2023/08/02 06:42:45;;;;;;;;;;;;;;;18.96;62.99;97853.59;10371376;28;1894;-72
2023/08/02 06:47:43;;;;;;;;;;;;;;;18.94;62.86;97856.38;10371486;28;973;-75
2023/08/02 06:52:42;;;;;;;;;;;;;;;18.94;62.99;97837.03;10371724;28;1213;-73
2023/08/02 06:57:38;;;;;;;;;;;;;;;18.94;62.95;97826.47;10371978;28;882;-73
2023/08/02 07:02:33;;;;;;;;;;;;;;;18.92;62.93;97820.50;10371330;28;1882;-69
2023/08/02 07:07:45;;;;;;;;;;;;;;;18.93;63.03;97819.50;10371173;28;903;-72
2023/08/02 07:12:44;;;;;;;;;;;;;;;18.95;63.54;97805.22;10371462;28;1416;-72
2023/08/02 07:17:44;;;;;;;;;;;;;;;18.97;63.51;97789.28;10370903;28;787;-72
2023/08/02 07:22:40;;;;;;;;;;;;;;;18.98;63.61;97789.16;10326088;28;1918;-72
2023/08/02 07:32:50;;;;;;;;;;;;;;;18.99;63.88;97753.03;10369536;28;602;-72
2023/08/02 07:37:46;;;;;;;;;;;;;;;18.97;64.03;97725.94;10370606;28;1211;-72
2023/08/02 07:53:18;;;;;;;;;;;;;;;18.98;64.00;97698.56;10359129;28;1052;-72
2023/08/02 07:58:14;;;;;;;;;;;;;;;18.96;64.09;97690.75;10328650;28;1237;-71
2023/08/02 08:08:24;;;;;;;;;;;;;;;19.02;64.08;97666.50;10327308;28;644;-70
2023/08/02 08:13:20;;;;;;;;;;;;;;;19.04;64.33;97647.88;10366418;28;1309;-71
2023/08/02 08:23:34;;;;;;;;;;;;;;;19.03;64.39;97607.44;10367863;28;1918;-71
2023/08/02 08:28:30;;;;;;;;;;;;;;;19.06;64.33;97579.94;10368237;28;1148;-73
2023/08/02 08:38:40;;;;;;;;;;;;;;;19.08;64.41;97559.53;10367407;28;605;-71
2023/08/02 08:43:36;;;;;;;;;;;;;;;19.09;64.70;97565.66;10368050;28;1886;-72
2023/08/02 08:48:33;;;;;;;;;;;;;;;19.07;64.53;97559.66;10367541;28;798;-79
2023/08/02 08:58:47;;;;;;;;;;;;;;;19.00;64.38;97548.78;10367660;28;632;-73
2023/08/02 09:03:45;;;;;;;;;;;;;;;19.05;64.63;97552.72;10367518;28;1222;-70
2023/08/02 09:13:56;;;;;;;;;;;;;;;19.01;64.53;97546.00;10366378;28;1495;-64
2023/08/02 09:19:07;;;;;;;;;;;;;;;19.02;64.66;97526.56;10365788;28;1985;-66
2023/08/02 09:24:04;;;;;;;;;;;;;;;19.03;64.54;97514.19;10366002;28;956;-70
2023/08/02 09:28:59;;;;;;;;;;;;;;;19.01;64.60;97498.47;10366705;28;925;-71
2023/08/02 09:34:10;;;;;;;;;;;;;;;19.02;64.49;97491.38;10366079;28;1174;-71
2023/08/02 09:39:06;;;;;;;;;;;;;;;19.04;64.32;97486.81;10366889;28;1949;-72
2023/08/02 09:44:11;;;;;;;;;;;;;;;19.08;64.54;97482.13;10366601;28;826;-73
2023/08/02 09:49:07;;;;;;;;;;;;;;;19.13;64.31;97464.09;10365351;28;901;-73
2023/08/02 09:54:03;;;;;;;;;;;;;;;19.13;64.39;97446.44;10366002;28;870;-72
2023/08/02 10:04:21;;;;;;;;;;;;;;;19.14;64.23;97426.97;10373410;28;676;-78
2023/08/02 10:14:35;;;;;;;;;;;;;;;19.16;64.07;97416.31;10372467;28;1347;-77
2023/08/02 10:19:31;;;;;;;;;;;;;;;19.12;63.99;97431.56;10373022;28;1965;-77
2023/08/02 10:29:42;;;;;;;;;;;;;;;19.11;64.01;97415.84;10372199;28;1588;-80
2023/08/02 10:50:35;;;;;;;;;;;;;;;19.12;63.79;97380.56;10754948;22;1941;-76
2023/08/02 10:55:34;;;;;;;;;;;;;;;19.11;63.57;97382.38;10497375;27;896;-77
2023/08/02 11:05:51;;;;;;;;;;;;;;;19.07;63.94;97385.41;10496514;27;644;-76
2023/08/02 11:10:47;;;;;;;;;;;;;;;19.05;63.87;97383.72;10496217;27;845;-76
2023/08/02 11:15:56;;;;;;;;;;;;;;;19.05;63.63;97389.00;10497203;27;834;-76
2023/08/02 11:31:31;;;;;;;;;;;;;;;19.08;63.82;97372.06;10495477;27;620;-76
2023/08/02 11:46:46;;;;;;;;;;;;;;;19.15;63.36;97330.13;10495942;27;759;-72
2023/08/02 11:57:08;;;;;;;;;;;;;;;19.15;63.34;97298.41;10494524;27;624;-72
2023/08/02 12:02:04;;;;;;;;;;;;;;;19.16;63.19;97300.13;10494475;27;1905;-72
2023/08/02 12:17:41;;;;;;;;;;;;;;;19.26;63.09;97293.06;10494131;27;656;-70
2023/08/02 12:28:06;;;;;;;;;;;;;;;19.30;63.48;97280.41;10436968;27;1108;-69
2023/08/02 12:43:31;;;;;;;;;;;;;;;19.35;63.57;97235.94;10493283;27;1969;-71
2023/08/02 12:48:42;;;;;;;;;;;;;;;19.36;63.54;97222.59;10492833;27;1168;-69
2023/08/02 13:04:11;;;;;;;;;;;;;;;19.37;63.64;97179.34;10490798;27;1790;-71
2023/08/02 13:19:35;;;;;;;;;;;;;;;19.18;64.26;97172.25;10491195;27;1889;-76
2023/08/02 13:35:10;;;;;;;;;;;;;;;19.24;64.99;97140.00;10360984;28;1402;-73
2023/08/02 13:50:45;;;;;;;;;;;;;;;19.25;65.52;97225.34;10360617;28;1203;-73
2023/08/02 13:55:41;;;;;;;;;;;;;;;19.31;65.37;97205.47;10361471;28;1065;-73
2023/08/02 14:00:55;;;;;;;;;;;;;;;19.28;65.43;97219.78;10360720;28;1913;-73
2023/08/02 14:06:12;;;;;;;;;;;;;;;19.28;65.60;97217.13;10361558;28;946;-73
2023/08/02 14:11:27;;;;;;;;;;;;;;;19.29;65.62;97236.47;10423534;27;1389;-73
2023/08/02 14:16:23;;;;;;;;;;;;;;;19.27;65.67;97223.41;10454897;27;982;-73
2023/08/02 14:31:59;;;;;;;;;;;;;;;19.44;65.43;97224.50;10490094;27;644;-72
2023/08/02 14:47:42;;;;;;;;;;;;;;;19.69;64.24;97220.53;10462304;27;1246;-73
2023/08/02 14:57:59;;;;;;;;;;;;;;;19.91;63.41;97233.47;10496987;27;597;-72
2023/08/02 15:13:35;;;;;;;;;;;;;;;20.16;62.66;97211.84;10496271;27;621;-68
2023/08/02 15:18:40;;;;;;;;;;;;;;;20.23;62.48;97194.44;10496680;27;1434;-68
2023/08/02 15:28:59;;;;;;;;;;;;;;;20.05;63.18;97202.25;10487693;27;1460;-67
2023/08/02 15:45:03;;;;;;;;;;;;;;;20.12;62.69;97211.28;10380271;27;996;-71
2023/08/02 15:49:59;;;;;;;;;;;;;;;19.90;63.25;97200.06;10458795;27;1331;-71
2023/08/02 16:05:24;;;;;;;;;;;;;;;19.79;63.53;97175.59;10494217;27;609;-71
2023/08/02 16:26:17;;;;;;;;;;;;;;;19.65;63.60;97198.00;10437741;27;1454;-72
2023/08/02 16:42:05;;;;;;;;;;;;;;;19.65;63.40;97250.84;10468701;27;1952;-71
2023/08/02 17:02:55;;;;;;;;;;;;;;;19.56;63.53;97260.41;10476346;27;1971;-71
2023/08/02 17:13:29;;;;;;;;;;;;;;;;;;;;;
2023/08/02 17:18:29;;;;;;;;;;;;;;;19.53;63.55;97263.34;10475626;27;921;-72
2023/08/02 17:44:40;;;;;;;;;;;;;;;19.54;63.56;97277.38;10459284;27;1251;-71
2023/08/02 18:00:28;;;;;;;;;;;;;;;19.48;63.54;97308.66;10491199;27;1978;-72
2023/08/02 18:05:24;;;;;;;;;;;;;;;19.48;63.53;97313.09;10485640;27;1012;-72
2023/08/02 18:15:40;;;;;;;;;;;;;;;19.47;63.55;97332.59;10490784;27;625;-71
2023/08/02 18:20:40;;;;;;;;;;;;;;;19.47;63.50;97362.47;10492628;27;1964;-70
2023/08/02 18:31:02;;;;;;;;;;;;;;;19.47;63.71;97406.56;10498203;27;620;-72
2023/08/02 18:36:01;;;;;;;;;;;;;;;19.45;63.74;97398.75;10498726;27;1281;-72
2023/08/02 18:41:12;;;;;;;;;;;;;;;19.46;64.02;97403.06;10497467;27;1893;-72
2023/08/02 18:46:11;;;;;;;;;;;;;;;19.46;64.02;97407.50;10497706;27;1213;-71
2023/08/02 18:51:07;;;;;;;;;;;;;;;19.45;64.01;97433.09;10497140;27;1304;-71
2023/08/02 18:56:18;;;;;;;;;;;;;;;19.44;64.05;97433.22;10496727;27;1266;-72
2023/08/02 19:01:14;;;;;;;;;;;;;;;19.44;64.05;97404.16;10497286;27;1965;-72
2023/08/02 19:06:13;;;;;;;;;;;;;;;19.42;64.14;97406.94;10496936;27;1312;-72
2023/08/02 19:11:10;;;;;;;;;;;;;;;19.42;64.09;97398.19;10497489;27;872;-71
2023/08/02 19:16:21;;;;;;;;;;;;;;;19.42;64.15;97392.91;10496055;27;1215;-71
2023/08/02 19:31:54;;;;;;;;;;;;;;;19.38;64.07;97394.13;10470617;27;1565;-72
2023/08/02 19:36:57;;;;;;;;;;;;;;;19.39;64.07;97382.63;10495339;27;960;-71
2023/08/02 19:47:15;;;;;;;;;;;;;;;19.38;64.07;97405.53;10495060;27;672;-72
2023/08/02 19:52:11;;;;;;;;;;;;;;;19.36;64.18;97398.72;10490199;27;1328;-71
2023/08/02 20:02:23;;;;;;;;;;;;;;;19.37;64.11;97401.22;10494689;27;1980;-70
2023/08/02 20:07:21;;;;;;;;;;;;;;;19.39;64.07;97411.69;10492867;27;1314;-70
2023/08/02 20:17:35;;;;;;;;;;;;;;;19.39;64.22;97411.69;10494481;27;621;-72
2023/08/02 20:22:31;;;;;;;;;;;;;;;19.38;64.25;97415.28;10494661;27;1972;-72
2023/08/02 20:43:36;;;;;;;;;;;;;;;19.35;64.06;97421.66;10492120;27;1960;-72
2023/08/02 20:48:32;;;;;;;;;;;;;;;19.36;64.18;97423.34;10492495;27;1022;-72
2023/08/02 20:53:44;;;;;;;;;;;;;;;19.35;63.92;97426.94;10493700;27;1217;-72
2023/08/02 21:14:38;;;;;;;;;;;;;;;19.35;63.88;97405.81;10491679;27;652;-72
2023/08/02 21:30:19;;;;;;;;;;;;;;;19.35;63.85;97404.97;10491395;27;675;-72
2023/08/02 21:40:33;;;;;;;;;;;;;;;19.34;63.81;97416.53;10491284;27;1964;-72
2023/08/02 22:01:37;;;;;;;;;;;;;;;19.34;63.62;97441.13;10371026;28;1897;-71
2023/08/02 22:12:10;;;;;;;;;;;;;;;19.34;63.64;97441.13;10369786;28;1147;-72
2023/08/02 22:22:43;;;;;;;;;;;;;;;19.33;63.73;97438.59;10369291;28;1897;-72
2023/08/02 22:27:53;;;;;;;;;;;;;;;19.33;63.79;97428.88;10369230;28;814;-71
2023/08/02 22:33:15;;;;;;;;;;;;;;;19.33;63.71;97409.56;10492208;27;963;-72
2023/08/02 22:38:23;;;;;;;;;;;;;;;19.32;63.71;97384.13;10497620;27;1278;-72
2023/08/02 22:48:49;;;;;;;;;;;;;;;;;;;;;
2023/08/02 23:04:38;;;;;;;;;;;;;;;19.31;63.64;97388.56;10325197;28;1135;-72
2023/08/02 23:14:59;;;;;;;;;;;;;;;19.31;63.55;97391.22;10412304;28;657;-72
2023/08/02 23:30:26;;;;;;;;;;;;;;;19.30;63.48;97376.31;10411936;28;633;-72
2023/08/02 23:35:35;;;;;;;;;;;;;;;19.29;63.46;97372.00;10411926;28;1139;-71
2023/08/02 23:45:59;;;;;;;;;;;;;;;19.28;63.43;97375.59;10411257;28;613;-72
2023/08/02 23:51:20;;;;;;;;;;;;;;;19.27;63.40;97369.50;10435919;27;1200;-72
